Impacts TAF Board
For situational awareness. Not to be used for flight planning purposes.
IDs:

KBTR - Baton Rouge/Ryan Fld, LA, US

Issued at 1720 UTC 02 Oct 2022
Updated at 2208 UTC 02 Oct 2022
Potential Impact None Slight Moderate High
Time<<03/23Z 04/00Z 04/01Z 04/02Z 04/03Z 04/04Z 04/05Z 04/06Z 04/07Z 04/08Z 04/09Z 04/10Z 04/11Z
Type
VIS
CIG
Cover
FltCat
WX
WDir
WSpd
WGst
WSHgt
WSDir
WSSpd
Raw TAF
KBTR 021720Z 0218/0318 01007KT P6SM FEW250
  FM030000 VRB03KT P6SM SKC


METAR Board
Radar Display
Forecast Discussion
For situational awareness. Not to be used for flight planning purposes.